Time;durP1;ratioP1;P1;durP2;ratioP2;P2;SDS_P1;SDS_P2;PMS_P1;PMS_P2;Temp;Humidity;BMP_temperature;BMP_pressure;BME280_temperature;BME280_humidity;BME280_pressure;Samples;Min_cycle;Max_cycle;Signal;HPM_P1;HPM_P2
2023/12/16 00:00:06;;;;;;;9.63;2.40;;;8.00;89.30;;;;;;5107110;27;20031;-77
2023/12/16 00:02:31;;;;;;;8.27;2.15;;;8.00;89.20;;;;;;5122906;27;20114;-77
2023/12/16 00:04:57;;;;;;;8.00;2.20;;;8.00;89.10;;;;;;5123277;27;20526;-78
2023/12/16 00:07:23;;;;;;;10.60;1.90;;;8.00;89.00;;;;;;5125769;27;20038;-78
2023/12/16 00:09:48;;;;;;;8.63;1.90;;;8.00;88.80;;;;;;5121883;27;20092;-78
2023/12/16 00:12:14;;;;;;;8.23;2.00;;;8.00;88.80;;;;;;5127508;27;20035;-78
2023/12/16 00:14:40;;;;;;;6.80;2.38;;;8.00;88.70;;;;;;5107093;27;20107;-77
2023/12/16 00:17:06;;;;;;;6.15;2.42;;;8.10;88.70;;;;;;5107029;27;20050;-78
2023/12/16 00:19:31;;;;;;;8.23;2.17;;;8.00;88.50;;;;;;5088967;27;20042;-78
2023/12/16 00:21:57;;;;;;;8.50;1.95;;;8.00;88.30;;;;;;5122652;27;20040;-78
2023/12/16 00:24:22;;;;;;;9.45;2.50;;;8.00;88.20;;;;;;5122078;27;20383;-78
2023/12/16 00:26:48;;;;;;;9.23;2.03;;;8.00;88.00;;;;;;5110141;28;20093;-78
2023/12/16 00:29:13;;;;;;;7.75;1.85;;;8.00;87.90;;;;;;5121656;27;20557;-78
2023/12/16 00:31:39;;;;;;;9.88;1.70;;;8.00;87.70;;;;;;5128766;27;20038;-77
2023/12/16 00:34:05;;;;;;;6.88;1.70;;;8.00;87.70;;;;;;5125509;27;20447;-78
2023/12/16 00:36:31;;;;;;;7.90;1.90;;;8.00;87.60;;;;;;5105938;28;20051;-78
2023/12/16 00:38:57;;;;;;;6.28;1.67;;;8.00;87.60;;;;;;5125527;27;20034;-78
2023/12/16 00:41:23;;;;;;;5.70;2.33;;;8.00;87.60;;;;;;5126040;27;20445;-78
2023/12/16 00:43:49;;;;;;;5.10;2.17;;;8.00;87.60;;;;;;5109541;28;20040;-78
2023/12/16 00:46:15;;;;;;;8.18;2.78;;;7.90;87.60;;;;;;5104424;28;20035;-78
2023/12/16 00:48:40;;;;;;;4.22;1.92;;;7.90;87.50;;;;;;5124060;28;20028;-78
2023/12/16 00:51:06;;;;;;;6.80;2.20;;;8.00;87.60;;;;;;5124384;28;20611;-77
2023/12/16 00:53:32;;;;;;;11.27;2.47;;;8.00;87.60;;;;;;5122090;28;20038;-77
2023/12/16 00:55:57;;;;;;;9.27;2.70;;;7.90;87.50;;;;;;5124711;28;20133;-77
2023/12/16 00:58:23;;;;;;;8.07;1.95;;;7.90;87.40;;;;;;5128297;28;20472;-77
2023/12/16 01:00:49;;;;;;;6.07;2.10;;;7.90;87.40;;;;;;5105160;28;20042;-78
2023/12/16 01:03:15;;;;;;;8.38;2.22;;;7.90;87.40;;;;;;5107683;28;20043;-78
2023/12/16 01:05:40;;;;;;;7.78;2.47;;;7.90;87.30;;;;;;5108663;27;20038;-78
2023/12/16 01:08:06;;;;;;;10.57;2.45;;;7.90;87.30;;;;;;5110776;27;20477;-76
2023/12/16 01:10:32;;;;;;;8.52;2.45;;;7.90;87.20;;;;;;5107494;27;20046;-77
2023/12/16 01:12:57;;;;;;;7.85;1.75;;;7.90;87.20;;;;;;5127686;27;20473;-78
2023/12/16 01:15:23;;;;;;;8.30;2.10;;;7.90;87.20;;;;;;5132054;27;20031;-78
2023/12/16 01:17:48;;;;;;;9.18;2.28;;;7.90;87.20;;;;;;5128579;27;20031;-77
2023/12/16 01:20:15;;;;;;;6.97;2.35;;;7.80;87.10;;;;;;5111278;27;20027;-77
2023/12/16 01:22:40;;;;;;;6.45;2.58;;;7.80;87.10;;;;;;5110285;27;20039;-77
2023/12/16 01:25:06;;;;;;;8.15;2.38;;;7.80;87.00;;;;;;5125070;27;20035;-77
2023/12/16 01:27:32;;;;;;;6.93;2.92;;;7.80;86.90;;;;;;5128470;27;20032;-77
2023/12/16 01:29:58;;;;;;;9.60;2.45;;;7.70;86.80;;;;;;5127127;27;20078;-77
2023/12/16 01:32:23;;;;;;;10.52;2.58;;;7.70;86.80;;;;;;5108959;27;20047;-77
2023/12/16 01:34:49;;;;;;;8.95;2.85;;;7.70;86.80;;;;;;5111189;27;20043;-77
2023/12/16 01:37:15;;;;;;;4.93;1.98;;;7.70;86.80;;;;;;5124455;27;20043;-77
2023/12/16 01:39:41;;;;;;;5.18;1.88;;;7.60;86.90;;;;;;5127337;27;20047;-77
2023/12/16 01:42:06;;;;;;;14.25;3.60;;;7.60;86.80;;;;;;5127644;27;20035;-77
2023/12/16 01:44:32;;;;;;;7.47;2.22;;;7.60;86.90;;;;;;5135306;27;20500;-77
2023/12/16 01:46:57;;;;;;;6.72;2.20;;;7.60;86.80;;;;;;5126320;27;20030;-77
2023/12/16 01:49:24;;;;;;;9.40;2.00;;;7.60;86.80;;;;;;5127502;27;20035;-77
2023/12/16 01:51:50;;;;;;;9.90;2.22;;;7.50;86.80;;;;;;5122952;27;20127;-77
2023/12/16 01:54:16;;;;;;;7.78;2.22;;;7.50;86.80;;;;;;5127838;27;20039;-77
2023/12/16 01:56:43;;;;;;;7.78;2.15;;;7.50;86.80;;;;;;5125445;27;20043;-77
2023/12/16 01:59:09;;;;;;;6.88;2.05;;;7.50;86.90;;;;;;5126761;27;20375;-77
2023/12/16 02:01:35;;;;;;;6.00;2.17;;;7.50;87.00;;;;;;5127327;27;20525;-77
2023/12/16 02:04:01;;;;;;;9.27;2.30;;;7.40;86.90;;;;;;5110967;27;20167;-77
2023/12/16 02:06:27;;;;;;;8.85;2.45;;;7.40;87.00;;;;;;5126533;27;20043;-77
2023/12/16 02:08:53;;;;;;;7.63;1.83;;;7.40;87.20;;;;;;5128588;27;20038;-77
2023/12/16 02:11:18;;;;;;;10.00;1.90;;;7.40;87.20;;;;;;5127868;27;20038;-77
2023/12/16 02:13:44;;;;;;;11.40;2.33;;;7.40;87.20;;;;;;5124412;27;20074;-77
2023/12/16 02:16:10;;;;;;;9.00;2.08;;;7.30;87.20;;;;;;5124200;27;20035;-77
2023/12/16 02:18:36;;;;;;;12.95;2.45;;;7.30;87.20;;;;;;5124729;27;20398;-77
2023/12/16 02:21:02;;;;;;;7.18;1.50;;;7.30;87.20;;;;;;5125655;27;20104;-77
2023/12/16 02:23:28;;;;;;;7.50;2.42;;;7.30;87.20;;;;;;5128937;27;20031;-77
2023/12/16 02:25:53;;;;;;;7.47;1.95;;;7.30;87.20;;;;;;5109177;27;20372;-77
2023/12/16 02:28:19;;;;;;;7.88;1.70;;;7.20;87.10;;;;;;5126170;27;20478;-78
2023/12/16 02:30:44;;;;;;;4.70;1.70;;;7.20;87.20;;;;;;5128169;27;20184;-77
2023/12/16 02:33:10;;;;;;;11.32;2.45;;;7.20;87.30;;;;;;5127789;27;20490;-77
2023/12/16 02:35:36;;;;;;;8.18;2.70;;;7.20;87.30;;;;;;5127599;27;20447;-77
2023/12/16 02:38:02;;;;;;;8.32;1.90;;;7.20;87.40;;;;;;5109412;27;20092;-77
2023/12/16 02:40:28;;;;;;;9.48;2.30;;;7.20;87.40;;;;;;5092673;27;20054;-77
2023/12/16 02:42:53;;;;;;;9.35;2.47;;;7.10;87.40;;;;;;5124362;27;20038;-77
2023/12/16 02:45:19;;;;;;;10.95;2.53;;;7.10;87.50;;;;;;5108742;27;20470;-77
2023/12/16 02:47:44;;;;;;;11.65;1.85;;;7.10;87.50;;;;;;5106699;27;20428;-77
2023/12/16 02:50:10;;;;;;;4.60;1.83;;;7.10;87.60;;;;;;5109939;27;20023;-77
2023/12/16 02:52:36;;;;;;;9.10;1.92;;;7.10;87.70;;;;;;5107722;27;20048;-77
2023/12/16 02:55:02;;;;;;;7.18;1.85;;;7.10;87.70;;;;;;5126526;27;20035;-77
2023/12/16 02:57:27;;;;;;;8.27;2.47;;;7.00;87.70;;;;;;5126269;27;20359;-77
2023/12/16 02:59:53;;;;;;;7.65;2.00;;;7.00;87.70;;;;;;5130504;27;20504;-77
2023/12/16 03:02:18;;;;;;;8.13;1.75;;;7.00;87.80;;;;;;5126335;27;20176;-77
2023/12/16 03:04:44;;;;;;;7.40;2.22;;;7.00;87.80;;;;;;5124023;27;20031;-77
2023/12/16 03:07:10;;;;;;;6.53;2.10;;;7.00;87.90;;;;;;5108975;27;20443;-77
2023/12/16 03:09:36;;;;;;;8.93;2.28;;;7.00;87.90;;;;;;5127412;27;20114;-77
2023/12/16 03:12:01;;;;;;;7.18;2.70;;;7.00;87.90;;;;;;5104615;28;20128;-77
2023/12/16 03:14:28;;;;;;;9.00;2.55;;;7.00;88.00;;;;;;5089936;28;20123;-77
2023/12/16 03:16:53;;;;;;;6.30;1.95;;;7.00;88.00;;;;;;5126833;27;20047;-77
2023/12/16 03:19:19;;;;;;;10.30;2.40;;;7.00;88.10;;;;;;5124889;27;20031;-77
2023/12/16 03:21:44;;;;;;;9.02;2.60;;;6.90;88.00;;;;;;5128797;27;20043;-77
2023/12/16 03:24:10;;;;;;;10.55;2.85;;;6.90;88.10;;;;;;5107784;27;20409;-77
2023/12/16 03:26:36;;;;;;;10.50;2.40;;;6.90;88.10;;;;;;5126009;27;20527;-77
2023/12/16 03:29:01;;;;;;;10.35;2.63;;;6.90;88.10;;;;;;5125745;27;20031;-77
2023/12/16 03:31:27;;;;;;;9.82;1.98;;;6.90;88.20;;;;;;5125893;27;20039;-77
2023/12/16 03:33:53;;;;;;;10.32;2.30;;;6.90;88.20;;;;;;5129069;27;20043;-77
2023/12/16 03:36:19;;;;;;;11.70;2.33;;;6.90;88.30;;;;;;5107190;27;20031;-77
2023/12/16 03:38:45;;;;;;;13.13;3.28;;;6.90;88.30;;;;;;5106055;27;20682;-77
2023/12/16 03:41:12;;;;;;;10.50;2.72;;;6.90;88.40;;;;;;5105473;27;20119;-77
2023/12/16 03:43:38;;;;;;;10.55;2.47;;;6.90;88.50;;;;;;5109403;28;20039;-77
2023/12/16 03:46:04;;;;;;;12.20;2.60;;;6.90;88.50;;;;;;5126529;27;20035;-77
2023/12/16 03:48:29;;;;;;;11.38;3.45;;;7.10;88.60;;;;;;5127456;27;20027;-77
2023/12/16 03:50:55;;;;;;;5.65;2.25;;;6.90;88.50;;;;;;5126315;27;20036;-77
2023/12/16 03:53:21;;;;;;;9.82;2.05;;;6.80;88.50;;;;;;5123862;27;20031;-77
2023/12/16 03:55:46;;;;;;;8.23;2.35;;;6.90;88.60;;;;;;5121578;27;20040;-77
2023/12/16 03:58:12;;;;;;;8.98;1.98;;;6.80;88.60;;;;;;5125776;27;20027;-77
2023/12/16 04:00:37;;;;;;;8.05;2.40;;;6.80;88.60;;;;;;5125332;27;20067;-77
2023/12/16 04:03:03;;;;;;;11.95;2.38;;;6.80;88.70;;;;;;5122605;27;20036;-77
2023/12/16 04:05:28;;;;;;;14.65;2.85;;;6.80;88.70;;;;;;5108504;27;20035;-77
2023/12/16 04:07:54;;;;;;;10.27;2.58;;;6.80;88.70;;;;;;5123705;27;20386;-77
2023/12/16 04:10:20;;;;;;;10.75;3.10;;;6.80;88.80;;;;;;5128663;27;20080;-77
2023/12/16 04:12:45;;;;;;;12.88;2.88;;;6.90;88.90;;;;;;5122071;27;20108;-77
2023/12/16 04:15:14;;;;;;;10.63;2.92;;;6.80;88.90;;;;;;5125577;27;20070;-77
2023/12/16 04:17:40;;;;;;;9.55;2.50;;;6.80;88.90;;;;;;5123720;27;20031;-77
2023/12/16 04:20:06;;;;;;;11.57;2.33;;;6.80;89.00;;;;;;5108335;27;20127;-77
2023/12/16 04:22:31;;;;;;;10.30;2.35;;;6.80;89.00;;;;;;5102668;27;20118;-77
2023/12/16 04:25:00;;;;;;;7.30;3.00;;;6.80;89.00;;;;;;5122836;27;20115;-77
2023/12/16 04:27:26;;;;;;;9.20;3.03;;;6.80;89.00;;;;;;5121085;27;20031;-77
2023/12/16 04:29:52;;;;;;;12.20;3.15;;;6.80;89.00;;;;;;5124079;27;20464;-77
2023/12/16 04:32:18;;;;;;;14.73;2.67;;;6.80;89.00;;;;;;5107450;27;20126;-77
2023/12/16 04:34:44;;;;;;;14.48;4.30;;;6.80;89.00;;;;;;5122355;27;20122;-77
2023/12/16 04:37:10;;;;;;;14.82;3.42;;;6.80;89.50;;;;;;5123093;27;20502;-77
2023/12/16 04:39:36;;;;;;;10.40;2.85;;;6.80;89.00;;;;;;5125693;27;20042;-77
2023/12/16 04:42:02;;;;;;;9.55;2.60;;;6.80;89.10;;;;;;5126627;27;20036;-77
2023/12/16 04:44:27;;;;;;;10.52;3.50;;;6.80;89.10;;;;;;5123811;27;20042;-77
2023/12/16 04:46:53;;;;;;;11.25;2.35;;;6.80;89.10;;;;;;5125575;28;20390;-77
2023/12/16 04:49:18;;;;;;;10.90;2.78;;;6.80;89.10;;;;;;5125089;28;20031;-77
2023/12/16 04:51:45;;;;;;;11.88;3.13;;;6.80;89.10;;;;;;5123496;28;20486;-77
2023/12/16 04:54:11;;;;;;;13.13;4.38;;;6.80;89.10;;;;;;5125504;28;20050;-77
2023/12/16 04:56:36;;;;;;;7.13;2.45;;;6.80;89.10;;;;;;5104456;28;20398;-77
2023/12/16 04:59:02;;;;;;;12.32;3.28;;;6.80;89.10;;;;;;5105516;28;20035;-77
2023/12/16 05:01:28;;;;;;;10.70;3.72;;;6.80;89.20;;;;;;5106831;28;20469;-77
2023/12/16 05:03:54;;;;;;;7.03;2.55;;;6.80;89.20;;;;;;5121221;28;20085;-77
2023/12/16 05:06:20;;;;;;;10.68;3.00;;;6.80;89.30;;;;;;5124626;28;20039;-77
2023/12/16 05:08:46;;;;;;;11.45;3.17;;;6.80;89.30;;;;;;5121984;28;20040;-77
2023/12/16 05:11:11;;;;;;;17.23;3.53;;;6.70;89.30;;;;;;5123699;28;20032;-77
2023/12/16 05:13:37;;;;;;;12.85;2.83;;;6.70;89.40;;;;;;5124135;28;20032;-77
2023/12/16 05:16:03;;;;;;;6.45;2.40;;;6.80;89.50;;;;;;5123947;28;20104;-77
2023/12/16 05:18:28;;;;;;;10.20;3.08;;;6.70;89.50;;;;;;5122429;28;20071;-77
2023/12/16 05:20:54;;;;;;;11.10;3.08;;;6.70;89.50;;;;;;5127416;28;20039;-77
2023/12/16 05:23:20;;;;;;;12.10;3.53;;;6.70;89.50;;;;;;5125202;28;20024;-77
2023/12/16 05:25:45;;;;;;;14.85;3.25;;;6.70;89.50;;;;;;5127880;28;20421;-77
2023/12/16 05:28:11;;;;;;;13.18;3.20;;;6.70;89.60;;;;;;5124794;28;20043;-77
2023/12/16 05:30:37;;;;;;;15.55;3.97;;;6.70;89.60;;;;;;5121493;28;20115;-77
2023/12/16 05:33:02;;;;;;;8.48;3.00;;;6.70;89.70;;;;;;5105484;28;20441;-77
2023/12/16 05:35:28;;;;;;;17.77;3.58;;;6.70;89.70;;;;;;5090020;28;20035;-77
2023/12/16 05:37:54;;;;;;;16.30;3.47;;;6.70;89.80;;;;;;5120716;28;20075;-77
2023/12/16 05:40:19;;;;;;;11.55;3.58;;;6.70;89.80;;;;;;5125491;28;20039;-77
2023/12/16 05:42:45;;;;;;;13.18;3.83;;;6.70;89.90;;;;;;5127673;28;20115;-77
2023/12/16 05:45:10;;;;;;;13.35;3.60;;;6.70;90.00;;;;;;5110616;28;20402;-77
2023/12/16 05:47:36;;;;;;;14.75;3.45;;;6.70;90.00;;;;;;5125180;28;20034;-77
2023/12/16 05:50:03;;;;;;;12.63;3.83;;;6.70;90.20;;;;;;5123022;27;20423;-77
2023/12/16 05:52:30;;;;;;;12.45;3.45;;;6.70;90.00;;;;;;5106393;28;20495;-77
2023/12/16 05:54:55;;;;;;;15.57;3.78;;;6.70;90.00;;;;;;5128767;27;20056;-77
2023/12/16 05:57:21;;;;;;;12.70;3.65;;;6.60;90.00;;;;;;5129882;27;20039;-77
2023/12/16 05:59:46;;;;;;;14.15;3.53;;;6.60;90.00;;;;;;5125965;27;20050;-77
2023/12/16 06:02:12;;;;;;;18.08;5.07;;;6.60;90.10;;;;;;5109996;27;20090;-77
2023/12/16 06:04:38;;;;;;;8.32;3.80;;;6.60;90.10;;;;;;5108677;27;20023;-77
2023/12/16 06:07:04;;;;;;;14.80;4.05;;;6.60;90.10;;;;;;5125641;27;20031;-78
2023/12/16 06:09:29;;;;;;;16.50;4.07;;;6.60;90.10;;;;;;5125077;27;20072;-78
2023/12/16 06:11:55;;;;;;;14.05;3.72;;;6.60;90.20;;;;;;5125426;27;20035;-77
2023/12/16 06:14:21;;;;;;;15.52;4.47;;;6.60;90.20;;;;;;5125443;27;20071;-77
2023/12/16 06:16:47;;;;;;;14.55;3.97;;;6.60;90.20;;;;;;5107312;27;20082;-78
2023/12/16 06:19:12;;;;;;;13.65;3.90;;;6.60;90.20;;;;;;5125673;27;20044;-78
2023/12/16 06:21:38;;;;;;;16.60;4.32;;;6.60;90.20;;;;;;5128464;27;20480;-78
2023/12/16 06:24:04;;;;;;;13.15;3.92;;;6.60;90.30;;;;;;5129755;27;20055;-78
2023/12/16 06:26:30;;;;;;;11.25;4.32;;;6.60;90.30;;;;;;5126087;27;20027;-77
2023/12/16 06:28:55;;;;;;;16.35;5.57;;;6.60;90.30;;;;;;5126645;27;20046;-77
2023/12/16 06:31:21;;;;;;;15.77;4.50;;;6.60;90.30;;;;;;5106809;27;20746;-78
2023/12/16 06:33:47;;;;;;;13.32;4.43;;;6.60;90.30;;;;;;5107398;27;20039;-77
2023/12/16 06:36:12;;;;;;;16.60;4.53;;;6.60;90.40;;;;;;5108784;27;20409;-77
2023/12/16 06:38:39;;;;;;;11.70;4.72;;;6.60;90.40;;;;;;5127866;27;20126;-77
2023/12/16 06:41:05;;;;;;;16.00;4.38;;;6.60;90.40;;;;;;5105442;27;20065;-78
2023/12/16 06:43:31;;;;;;;21.88;5.15;;;6.60;90.40;;;;;;5130256;27;20446;-77
2023/12/16 06:45:56;;;;;;;14.65;4.88;;;6.60;90.50;;;;;;5110091;27;20042;-77
2023/12/16 06:48:22;;;;;;;19.30;4.60;;;6.60;90.50;;;;;;5127062;27;20153;-77
2023/12/16 06:50:51;;;;;;;16.40;5.40;;;6.60;90.50;;;;;;5123145;27;20067;-77
2023/12/16 06:53:17;;;;;;;11.57;5.05;;;6.60;90.50;;;;;;5130446;27;20410;-77
2023/12/16 06:55:42;;;;;;;20.02;5.35;;;6.60;90.50;;;;;;5127402;27;20490;-77
2023/12/16 06:58:08;;;;;;;21.92;6.53;;;6.60;90.60;;;;;;5109112;27;20465;-77
2023/12/16 07:00:34;;;;;;;15.38;4.60;;;6.60;90.60;;;;;;5109224;27;20035;-77
2023/12/16 07:03:00;;;;;;;17.23;4.65;;;6.60;90.60;;;;;;5105710;27;20050;-78
2023/12/16 07:05:27;;;;;;;18.65;5.63;;;6.60;90.70;;;;;;5108584;27;20127;-78
2023/12/16 07:07:53;;;;;;;17.05;4.85;;;6.60;90.70;;;;;;5127114;27;20031;-78
2023/12/16 07:10:19;;;;;;;15.38;5.32;;;6.60;90.80;;;;;;5110465;27;20458;-77
2023/12/16 07:12:44;;;;;;;23.90;6.40;;;6.60;90.80;;;;;;5123668;27;20040;-77
2023/12/16 07:15:10;;;;;;;21.90;5.85;;;6.70;90.90;;;;;;5108269;27;20043;-77
2023/12/16 07:17:36;;;;;;;17.38;5.28;;;6.70;91.00;;;;;;5109923;27;20046;-77
2023/12/16 07:20:02;;;;;;;16.65;5.85;;;6.70;91.00;;;;;;5126116;27;20046;-77
2023/12/16 07:22:29;;;;;;;21.40;5.45;;;6.70;91.10;;;;;;5108738;27;20038;-77
2023/12/16 07:24:55;;;;;;;17.35;5.25;;;6.70;91.10;;;;;;5088895;28;20410;-77
2023/12/16 07:27:22;;;;;;;16.17;4.65;;;6.70;91.20;;;;;;5111696;27;21599;-77
2023/12/16 07:29:47;;;;;;;16.17;4.97;;;6.80;91.30;;;;;;5124276;27;20503;-77
2023/12/16 07:32:13;;;;;;;19.17;5.43;;;6.80;91.30;;;;;;5105091;27;20133;-77
2023/12/16 07:34:40;;;;;;;20.40;5.72;;;6.80;91.40;;;;;;5126592;27;20031;-77
2023/12/16 07:37:06;;;;;;;15.98;5.47;;;6.80;91.40;;;;;;5126286;27;20051;-77
2023/12/16 07:39:31;;;;;;;18.15;5.55;;;6.80;91.40;;;;;;5126391;27;20039;-77
2023/12/16 07:41:57;;;;;;;18.05;5.18;;;6.80;91.50;;;;;;5125988;27;20031;-77
2023/12/16 07:44:22;;;;;;;20.67;5.55;;;6.90;91.50;;;;;;5106302;27;20070;-78
2023/12/16 07:46:48;;;;;;;24.30;6.95;;;6.90;91.60;;;;;;5106276;27;20043;-78
2023/12/16 07:49:14;;;;;;;21.40;5.65;;;6.90;91.70;;;;;;5105706;27;20496;-78
2023/12/16 07:51:39;;;;;;;19.08;5.88;;;6.90;91.60;;;;;;5111380;27;20049;-77
2023/12/16 07:54:05;;;;;;;21.08;5.97;;;7.00;91.60;;;;;;5107705;27;20035;-77
2023/12/16 07:56:31;;;;;;;18.75;5.25;;;7.00;91.70;;;;;;5089736;27;20086;-77
2023/12/16 07:58:59;;;;;;;23.30;6.25;;;7.00;91.70;;;;;;5105572;27;20493;-77
2023/12/16 08:01:25;;;;;;;20.45;5.80;;;7.00;91.70;;;;;;5110739;27;20043;-78
2023/12/16 08:03:50;;;;;;;18.65;5.85;;;7.00;91.70;;;;;;5107910;27;20027;-77
2023/12/16 08:06:17;;;;;;;21.30;5.18;;;7.10;91.70;;;;;;5108259;27;20558;-79
2023/12/16 08:08:43;;;;;;;21.75;6.13;;;7.10;91.80;;;;;;5088616;28;20027;-78
2023/12/16 08:11:10;;;;;;;18.27;5.18;;;7.10;91.80;;;;;;5091728;27;20046;-78
2023/12/16 08:13:36;;;;;;;19.10;5.97;;;7.10;91.80;;;;;;5105387;28;20039;-78
2023/12/16 08:16:04;;;;;;;18.33;6.32;;;7.20;91.80;;;;;;5088692;28;20046;-78
2023/12/16 08:18:30;;;;;;;20.15;5.57;;;7.20;91.80;;;;;;5096846;27;20516;-78
2023/12/16 08:20:56;;;;;;;19.33;5.57;;;7.20;91.80;;;;;;5110262;27;20054;-78
2023/12/16 08:23:22;;;;;;;19.45;5.53;;;7.20;91.80;;;;;;5103673;27;20486;-78
2023/12/16 08:25:47;;;;;;;22.42;6.50;;;7.30;91.80;;;;;;5107288;27;20036;-78
2023/12/16 08:28:13;;;;;;;19.73;5.82;;;7.30;92.00;;;;;;5109820;27;20118;-78
2023/12/16 08:30:39;;;;;;;20.27;6.40;;;7.30;91.90;;;;;;5110617;27;20034;-78
2023/12/16 08:33:05;;;;;;;17.95;5.93;;;7.30;91.90;;;;;;5104021;27;20058;-78
2023/12/16 08:35:31;;;;;;;18.42;6.07;;;7.30;91.90;;;;;;5107901;27;20042;-78
2023/12/16 08:37:57;;;;;;;20.00;6.38;;;7.30;91.90;;;;;;5107408;28;20055;-78
2023/12/16 08:40:24;;;;;;;18.08;5.07;;;7.40;91.90;;;;;;5123043;27;20494;-78
2023/12/16 08:42:50;;;;;;;21.33;6.18;;;7.40;91.90;;;;;;5124307;27;20054;-77
2023/12/16 08:45:15;;;;;;;20.42;5.80;;;7.40;91.90;;;;;;5125700;27;20031;-77
2023/12/16 08:47:41;;;;;;;15.23;4.90;;;7.40;91.90;;;;;;5103464;28;20046;-77
2023/12/16 08:50:08;;;;;;;21.00;6.38;;;7.50;91.90;;;;;;5125703;28;20386;-77
2023/12/16 08:52:34;;;;;;;17.40;5.85;;;7.50;91.90;;;;;;5107216;28;20051;-77
2023/12/16 08:55:00;;;;;;;18.70;5.95;;;7.50;91.90;;;;;;5107387;28;20099;-77
2023/12/16 08:57:30;;;;;;;24.88;6.82;;;7.50;91.90;;;;;;5107254;28;20520;-77
2023/12/16 08:59:57;;;;;;;16.17;5.55;;;7.50;91.90;;;;;;5102365;28;20043;-77
2023/12/16 09:02:23;;;;;;;20.52;5.43;;;7.60;91.90;;;;;;5124519;28;20042;-77
2023/12/16 09:04:49;;;;;;;20.20;5.63;;;7.60;91.80;;;;;;5107191;28;20035;-77
2023/12/16 09:07:15;;;;;;;23.45;6.70;;;7.60;91.80;;;;;;5120827;28;20031;-77
2023/12/16 09:09:40;;;;;;;18.42;4.88;;;7.60;91.80;;;;;;5124642;28;20036;-77
2023/12/16 09:12:07;;;;;;;23.60;6.50;;;7.70;91.90;;;;;;5123010;28;20397;-77
2023/12/16 09:14:33;;;;;;;18.23;5.20;;;7.70;91.80;;;;;;5125644;28;20046;-77
2023/12/16 09:16:59;;;;;;;20.10;6.03;;;7.70;91.80;;;;;;5125384;28;20171;-77
2023/12/16 09:19:25;;;;;;;22.63;6.10;;;7.70;91.80;;;;;;5103316;28;20040;-77
2023/12/16 09:21:50;;;;;;;19.70;5.55;;;7.70;91.80;;;;;;5106369;28;20047;-77
2023/12/16 09:24:17;;;;;;;23.50;6.32;;;7.70;91.80;;;;;;5086298;28;20032;-78
2023/12/16 09:26:43;;;;;;;21.17;7.35;;;7.70;91.80;;;;;;5092269;27;20073;-78
2023/12/16 09:29:10;;;;;;;21.95;7.85;;;7.80;91.80;;;;;;5111386;27;20397;-79
2023/12/16 09:31:36;;;;;;;21.33;7.00;;;7.80;91.80;;;;;;5129241;27;20481;-77
2023/12/16 09:34:01;;;;;;;24.15;6.53;;;7.80;91.70;;;;;;5129739;27;20039;-77
2023/12/16 09:36:28;;;;;;;19.95;5.88;;;7.80;91.70;;;;;;5109966;27;20087;-77
2023/12/16 09:38:54;;;;;;;25.48;6.88;;;7.80;91.70;;;;;;5109934;27;20042;-77
2023/12/16 09:41:22;;;;;;;20.00;6.07;;;7.80;91.70;;;;;;5106266;28;20032;-77
2023/12/16 09:43:58;;;;;;;25.27;6.65;;;7.90;91.70;;;;;;5129088;27;20494;-77
2023/12/16 09:46:29;;;;;;;19.35;5.50;;;7.90;91.80;;;;;;5131816;27;20393;-77
2023/12/16 09:48:55;;;;;;;20.50;6.00;;;7.90;91.70;;;;;;5124769;27;20053;-77
2023/12/16 09:51:23;;;;;;;17.33;5.85;;;7.90;91.70;;;;;;5114170;27;20035;-77
2023/12/16 09:53:50;;;;;;;27.65;6.50;;;7.90;91.70;;;;;;5125129;27;20092;-77
2023/12/16 09:56:16;;;;;;;27.23;7.65;;;7.90;91.70;;;;;;5128991;27;20399;-78
2023/12/16 09:58:44;;;;;;;19.95;6.53;;;8.00;91.80;;;;;;5128870;27;20027;-78
2023/12/16 10:01:10;;;;;;;26.25;6.40;;;8.00;91.80;;;;;;5128797;27;20041;-78
2023/12/16 10:03:40;;;;;;;21.90;6.43;;;8.00;91.80;;;;;;5107125;27;20463;-78
2023/12/16 10:06:08;;;;;;;22.38;6.57;;;8.00;91.80;;;;;;5107673;27;20096;-78
2023/12/16 10:08:34;;;;;;;25.65;7.20;;;8.00;91.80;;;;;;5123629;27;20497;-78
2023/12/16 10:11:02;;;;;;;18.98;5.43;;;8.00;91.80;;;;;;5106502;27;20023;-78
2023/12/16 10:13:29;;;;;;;30.10;8.00;;;8.00;91.80;;;;;;5108293;27;20094;-78
2023/12/16 10:15:56;;;;;;;22.13;5.78;;;8.10;91.80;;;;;;5105734;28;20485;-77
2023/12/16 10:18:21;;;;;;;22.95;6.25;;;8.00;91.80;;;;;;5093134;27;20078;-78
2023/12/16 10:20:47;;;;;;;22.33;5.78;;;8.10;91.80;;;;;;5125274;27;20080;-78
2023/12/16 10:23:13;;;;;;;19.45;6.35;;;8.10;91.90;;;;;;5095218;27;20373;-78
2023/12/16 10:25:42;;;;;;;25.63;6.75;;;8.10;91.90;;;;;;5108294;27;20115;-78
2023/12/16 10:28:09;;;;;;;22.08;7.65;;;8.10;91.90;;;;;;5128585;27;20031;-78
2023/12/16 10:30:34;;;;;;;24.15;7.63;;;8.10;91.90;;;;;;5089779;27;20055;-78
2023/12/16 10:33:03;;;;;;;23.08;6.97;;;8.10;91.90;;;;;;5127749;27;20118;-78
2023/12/16 10:35:30;;;;;;;24.33;7.43;;;8.10;91.90;;;;;;5124627;27;20172;-78
2023/12/16 10:37:55;;;;;;;27.25;8.18;;;8.20;92.00;;;;;;5130874;27;20047;-78
2023/12/16 10:40:22;;;;;;;27.10;8.82;;;8.20;92.00;;;;;;5124894;27;20125;-78
2023/12/16 10:42:48;;;;;;;22.20;8.30;;;8.20;92.00;;;;;;5125507;27;20040;-78
2023/12/16 10:45:14;;;;;;;29.05;8.82;;;8.20;92.00;;;;;;5108578;27;20507;-77
2023/12/16 10:47:41;;;;;;;34.40;9.77;;;8.20;92.00;;;;;;5127850;27;20019;-77
2023/12/16 10:50:07;;;;;;;24.13;8.48;;;8.20;92.00;;;;;;5127824;27;20031;-77
2023/12/16 10:52:41;;;;;;;25.88;9.73;;;8.20;92.00;;;;;;5109445;27;20043;-77
2023/12/16 10:55:16;;;;;;;31.40;10.00;;;8.20;92.10;;;;;;5123860;27;20084;-77
2023/12/16 10:57:50;;;;;;;26.83;10.45;;;8.20;92.10;;;;;;5107868;27;20041;-77
2023/12/16 11:00:22;;;;;;;31.33;10.57;;;8.20;92.10;;;;;;5127307;27;20053;-77
2023/12/16 11:03:03;;;;;;;24.83;10.48;;;8.20;92.10;;;;;;5106185;27;20397;-77
2023/12/16 11:05:34;;;;;;;32.42;11.73;;;8.30;92.20;;;;;;5123794;27;20028;-77
2023/12/16 11:08:03;;;;;;;31.98;11.68;;;8.20;92.20;;;;;;5127743;27;20042;-77
2023/12/16 11:10:30;;;;;;;31.77;11.93;;;8.30;92.20;;;;;;5123746;27;20036;-77
2023/12/16 11:13:00;;;;;;;32.17;12.77;;;8.30;92.30;;;;;;5109005;27;20099;-77
2023/12/16 11:15:27;;;;;;;29.25;11.85;;;8.30;92.30;;;;;;5127282;27;20036;-77
2023/12/16 11:17:54;;;;;;;30.08;12.50;;;8.30;92.30;;;;;;5107967;27;20474;-77
2023/12/16 11:20:25;;;;;;;28.42;12.05;;;8.30;92.30;;;;;;5107070;27;20038;-77
2023/12/16 11:22:52;;;;;;;31.75;13.52;;;8.30;92.30;;;;;;5127768;27;20156;-77
2023/12/16 11:25:20;;;;;;;30.38;13.07;;;8.40;92.40;;;;;;5127174;27;20036;-77
2023/12/16 11:27:49;;;;;;;25.85;12.05;;;8.40;92.40;;;;;;5105192;27;20494;-78
2023/12/16 11:30:17;;;;;;;27.27;12.23;;;8.40;92.40;;;;;;5126421;27;20027;-77
2023/12/16 11:32:45;;;;;;;24.15;12.52;;;8.30;92.30;;;;;;5122990;27;20376;-77
2023/12/16 11:35:11;;;;;;;29.33;12.35;;;8.30;92.20;;;;;;5123094;27;20040;-77
2023/12/16 11:37:37;;;;;;;24.42;10.75;;;8.30;92.10;;;;;;5106756;27;20070;-77
2023/12/16 11:40:07;;;;;;;29.65;12.45;;;8.20;92.00;;;;;;5108487;28;20477;-77
2023/12/16 11:42:55;;;;;;;27.67;11.88;;;8.20;92.00;;;;;;5106806;27;20062;-77
2023/12/16 11:45:40;;;;;;;24.35;12.15;;;8.10;91.90;;;;;;5123134;27;20042;-77
2023/12/16 11:48:08;;;;;;;21.67;10.80;;;8.10;91.90;;;;;;5104053;28;20064;-77
2023/12/16 11:50:37;;;;;;;30.05;12.15;;;8.00;91.90;;;;;;5089858;27;20039;-77
2023/12/16 11:53:04;;;;;;;29.75;12.10;;;7.90;91.90;;;;;;5123589;27;20035;-77
2023/12/16 11:55:30;;;;;;;28.48;12.90;;;7.90;92.00;;;;;;5108115;27;20147;-77
2023/12/16 11:57:56;;;;;;;23.10;12.23;;;7.80;92.00;;;;;;5126591;27;20091;-77
2023/12/16 12:00:22;;;;;;;23.60;11.90;;;7.80;92.00;;;;;;5107344;27;20477;-77
2023/12/16 12:02:50;;;;;;;26.02;12.35;;;7.80;92.10;;;;;;5126328;27;20071;-77
2023/12/16 12:05:16;;;;;;;20.02;11.15;;;7.80;92.20;;;;;;5120864;27;20417;-77
2023/12/16 12:07:41;;;;;;;18.77;10.38;;;7.80;92.20;;;;;;5105170;27;20035;-77
2023/12/16 12:10:09;;;;;;;19.00;11.00;;;7.70;92.30;;;;;;5108037;27;20039;-78
2023/12/16 12:12:34;;;;;;;22.85;11.07;;;7.70;92.30;;;;;;5105625;27;20047;-77
2023/12/16 12:15:00;;;;;;;21.30;10.43;;;7.70;92.40;;;;;;5107629;27;20387;-76
2023/12/16 12:17:28;;;;;;;19.05;10.25;;;7.70;92.50;;;;;;5125988;27;20031;-76
2023/12/16 12:19:55;;;;;;;19.70;10.55;;;7.70;92.50;;;;;;5123033;27;20031;-77
2023/12/16 12:22:24;;;;;;;23.20;11.00;;;7.70;92.60;;;;;;5126031;27;20517;-77
2023/12/16 12:24:50;;;;;;;23.05;11.57;;;7.70;92.60;;;;;;5122550;27;20035;-79
2023/12/16 12:27:17;;;;;;;18.08;10.07;;;7.60;92.60;;;;;;5111290;27;20037;-77
2023/12/16 12:30:04;;;;;;;23.70;10.98;;;7.60;92.70;;;;;;5106947;27;20478;-76
2023/12/16 12:32:31;;;;;;;20.48;11.27;;;7.70;92.90;;;;;;5123835;27;20088;-76
2023/12/16 12:35:02;;;;;;;22.55;10.98;;;7.70;92.90;;;;;;5121220;27;20032;-76
2023/12/16 12:37:35;;;;;;;23.15;12.05;;;7.70;93.10;;;;;;5124048;27;20055;-76
2023/12/16 12:40:01;;;;;;;21.90;11.80;;;7.70;93.10;;;;;;5103715;28;20048;-76
2023/12/16 12:42:27;;;;;;;23.92;12.32;;;7.70;93.10;;;;;;5120319;27;20046;-76